createdAt,value
2018-07-24T00:02:40.877Z,65.08
2018-07-24T00:05:38.879Z,64.46
2018-07-24T00:08:36.930Z,65.71
2018-07-24T00:11:34.745Z,65.87
2018-07-24T00:14:32.770Z,65.44
2018-07-24T00:17:30.175Z,66.15
2018-07-24T00:20:28.106Z,66.09
2018-07-24T00:23:25.557Z,66.07
2018-07-24T00:26:23.520Z,64.81
2018-07-24T00:29:20.886Z,64.74
2018-07-24T00:32:18.974Z,64.24
2018-07-24T00:35:17.127Z,64.37
2018-07-24T00:38:14.438Z,65.91
2018-07-24T00:41:12.492Z,65.75
2018-07-24T00:44:10.589Z,66.68
2018-07-24T00:47:08.585Z,65.33
2018-07-24T00:50:06.774Z,65.23
2018-07-24T00:53:04.922Z,66.00
2018-07-24T00:56:03.081Z,66.91
2018-07-24T00:59:01.179Z,66.07
2018-07-24T01:01:58.357Z,66.85
2018-07-24T01:04:56.544Z,66.16
2018-07-24T01:07:54.374Z,66.25
2018-07-24T01:10:52.474Z,66.61
2018-07-24T01:13:50.575Z,67.78
2018-07-24T01:16:48.507Z,69.06
2018-07-24T01:19:45.869Z,68.92
2018-07-24T01:22:43.758Z,68.75
2018-07-24T01:25:41.609Z,67.71
2018-07-24T01:28:39.566Z,67.65
2018-07-24T01:31:37.579Z,66.12
2018-07-24T01:34:34.867Z,66.33
2018-07-24T01:37:32.719Z,66.61
2018-07-24T01:40:30.962Z,68.44
2018-07-24T01:43:29.034Z,68.69
2018-07-24T01:46:27.035Z,68.16
2018-07-24T01:49:24.304Z,67.87
2018-07-24T01:52:21.610Z,68.21
2018-07-24T01:55:20.538Z,68.15
2018-07-24T01:58:18.681Z,68.75
2018-07-24T02:01:16.768Z,68.62
2018-07-24T02:04:14.877Z,68.84
2018-07-24T02:07:13.035Z,68.79
2018-07-24T02:10:10.188Z,68.82
2018-07-24T02:13:08.168Z,68.70
2018-07-24T02:16:06.258Z,69.36
2018-07-24T02:19:04.243Z,70.11
2018-07-24T02:22:02.078Z,70.01
2018-07-24T02:24:59.166Z,69.76
2018-07-24T02:27:57.246Z,69.64
2018-07-24T02:30:55.228Z,68.61
2018-07-24T02:33:53.230Z,67.61
2018-07-24T02:36:51.145Z,68.23
2018-07-24T02:39:49.150Z,68.44
2018-07-24T02:42:47.299Z,68.93
2018-07-24T02:45:45.362Z,69.12
2018-07-24T02:48:43.454Z,69.82
2018-07-24T02:51:41.638Z,69.69
2018-07-24T02:54:38.974Z,69.84
2018-07-24T02:57:36.686Z,69.89
2018-07-24T03:00:34.434Z,69.88
2018-07-24T03:03:32.616Z,70.28
2018-07-24T03:06:30.611Z,69.82
2018-07-24T03:09:29.617Z,70.56
2018-07-24T03:12:27.175Z,70.76
2018-07-24T03:15:25.031Z,70.05
2018-07-24T03:18:23.117Z,70.15
2018-07-24T03:21:21.182Z,70.22
2018-07-24T03:24:19.364Z,69.75
2018-07-24T03:27:17.218Z,69.12
2018-07-24T03:30:15.234Z,69.29
2018-07-24T03:33:13.366Z,71.21
2018-07-24T03:36:11.446Z,71.43
2018-07-24T03:39:09.637Z,70.78
2018-07-24T03:42:07.813Z,71.68
2018-07-24T03:45:05.927Z,71.13
2018-07-24T03:48:04.008Z,70.89
2018-07-24T03:51:01.942Z,69.41
2018-07-24T03:53:59.992Z,69.42
2018-07-24T03:56:57.273Z,67.67
2018-07-24T03:59:54.611Z,67.31
2018-07-24T04:02:52.410Z,66.32
2018-07-24T04:05:50.513Z,64.18
2018-07-24T04:08:48.422Z,64.09
2018-07-24T04:11:45.622Z,63.28
2018-07-24T04:14:43.662Z,61.51
2018-07-24T04:17:41.646Z,60.86
2018-07-24T04:20:39.726Z,58.25
2018-07-24T04:23:37.584Z,56.09
2018-07-24T04:26:35.578Z,55.27
2018-07-24T04:29:33.549Z,55.71
2018-07-24T04:32:30.704Z,56.33
2018-07-24T04:35:28.668Z,54.17
2018-07-24T04:38:26.550Z,53.07
2018-07-24T04:41:24.730Z,51.15
2018-07-24T04:44:22.686Z,49.94
2018-07-24T04:47:20.790Z,48.51
2018-07-24T04:50:18.842Z,47.48
2018-07-24T04:53:16.738Z,46.58
2018-07-24T04:56:13.837Z,44.86
2018-07-24T04:59:11.950Z,43.64
2018-07-24T05:02:10.161Z,41.60
2018-07-24T05:05:08.074Z,42.18
2018-07-24T05:08:05.374Z,43.16
2018-07-24T05:11:02.523Z,40.71
2018-07-24T05:14:00.719Z,39.98
2018-07-24T05:16:58.771Z,39.33
2018-07-24T05:19:56.699Z,38.67
2018-07-24T05:22:54.507Z,37.45
2018-07-24T05:25:51.962Z,37.26
2018-07-24T05:28:50.000Z,36.63
2018-07-24T05:31:47.979Z,37.25
2018-07-24T05:34:46.099Z,36.49
2018-07-24T05:37:44.085Z,35.49
2018-07-24T05:40:42.176Z,35.36
2018-07-24T05:43:39.413Z,34.53
2018-07-24T05:46:37.124Z,34.74
2018-07-24T05:49:35.492Z,34.08
2018-07-24T05:52:33.631Z,34.26
2018-07-24T05:55:31.622Z,34.74
2018-07-24T05:58:29.712Z,35.56
2018-07-24T06:01:27.562Z,35.13
2018-07-24T06:04:24.906Z,35.11
2018-07-24T06:07:22.936Z,34.13
2018-07-24T06:10:20.079Z,33.34
2018-07-24T06:13:17.389Z,33.90
2018-07-24T06:16:15.493Z,31.72
2018-07-24T06:19:12.778Z,32.04
2018-07-24T06:22:10.227Z,31.25
2018-07-24T06:25:08.063Z,31.78
2018-07-24T06:28:05.318Z,29.65
2018-07-24T06:31:03.310Z,28.41
2018-07-24T06:34:00.479Z,29.31
2018-07-24T06:36:57.638Z,29.18
2018-07-24T06:39:55.471Z,28.97
2018-07-24T06:42:53.806Z,29.37
2018-07-24T06:45:51.754Z,29.77
2018-07-24T06:48:49.543Z,29.06
2018-07-24T06:51:47.719Z,28.95
2018-07-24T06:54:45.787Z,28.16
2018-07-24T06:57:43.691Z,28.78
2018-07-24T07:00:41.930Z,27.64
2018-07-24T07:03:40.003Z,27.12
2018-07-24T07:06:38.183Z,28.23
2018-07-24T07:09:36.070Z,27.72
2018-07-24T07:12:34.425Z,27.31
2018-07-24T07:15:32.321Z,26.76
2018-07-24T07:18:29.588Z,26.42
2018-07-24T07:21:27.847Z,26.76
2018-07-24T07:24:25.037Z,26.57
2018-07-24T07:27:22.851Z,27.02
2018-07-24T07:30:21.193Z,27.23
2018-07-24T07:33:20.288Z,27.35
2018-07-24T07:36:17.675Z,27.35
2018-07-24T07:39:16.850Z,25.85
2018-07-24T07:42:14.198Z,26.23
2018-07-24T07:45:12.308Z,26.18
2018-07-24T07:48:10.450Z,26.89
2018-07-24T07:51:08.452Z,24.44
2018-07-24T07:54:06.446Z,25.28
2018-07-24T07:57:04.656Z,25.48
2018-07-24T08:00:02.897Z,24.06
2018-07-24T08:03:01.106Z,23.50
2018-07-24T08:05:59.294Z,25.39
2018-07-24T08:08:57.591Z,23.63
2018-07-24T08:11:55.475Z,23.61
2018-07-24T08:14:53.543Z,22.47
2018-07-24T08:17:51.653Z,22.42
2018-07-24T08:20:49.855Z,22.85
2018-07-24T08:23:47.894Z,23.90
2018-07-24T08:26:45.889Z,23.87
2018-07-24T08:29:43.968Z,22.68
2018-07-24T08:32:42.133Z,22.71
2018-07-24T08:35:40.098Z,23.68
2018-07-24T08:38:37.290Z,23.59
2018-07-24T08:41:34.842Z,23.13
2018-07-24T08:44:32.055Z,22.47
2018-07-24T08:47:30.315Z,22.80
2018-07-24T08:50:28.596Z,22.35
2018-07-24T08:53:26.831Z,22.65
2018-07-24T08:56:24.878Z,22.58
2018-07-24T08:59:23.165Z,22.65
2018-07-24T09:02:20.966Z,22.67
2018-07-24T09:05:18.287Z,23.95
2018-07-24T09:08:16.351Z,24.67
2018-07-24T09:11:14.581Z,24.98
2018-07-24T09:14:12.218Z,25.46
2018-07-24T09:17:10.397Z,23.14
2018-07-24T09:20:07.659Z,23.55
2018-07-24T09:23:05.779Z,23.96
2018-07-24T09:26:02.885Z,22.85
2018-07-24T09:29:00.947Z,23.80
2018-07-24T09:31:58.851Z,23.36
2018-07-24T09:34:56.884Z,23.51
2018-07-24T09:37:54.917Z,22.33
2018-07-24T09:40:52.911Z,23.31
2018-07-24T09:43:50.028Z,23.88
2018-07-24T09:46:47.924Z,23.38
2018-07-24T09:49:45.883Z,23.61
2018-07-24T09:52:43.927Z,23.44
2018-07-24T09:55:41.919Z,22.62
2018-07-24T09:58:39.999Z,22.02
2018-07-24T10:01:39.465Z,24.20
2018-07-24T10:04:37.502Z,25.71
2018-07-24T10:07:35.675Z,23.77
2018-07-24T10:10:33.531Z,25.26
2018-07-24T10:13:31.615Z,25.50
2018-07-24T10:16:29.705Z,25.46
2018-07-24T10:19:27.063Z,25.41
2018-07-24T10:22:25.336Z,25.00
2018-07-24T10:25:23.466Z,23.15
2018-07-24T10:28:21.838Z,23.19
2018-07-24T10:31:19.881Z,23.84
2018-07-24T10:34:17.635Z,22.77
2018-07-24T10:37:15.795Z,21.82
2018-07-24T10:40:13.986Z,23.05
2018-07-24T10:43:11.746Z,23.03
2018-07-24T10:46:09.605Z,21.83
2018-07-24T10:49:06.766Z,23.74
2018-07-24T10:52:04.874Z,25.88
2018-07-24T10:55:02.857Z,25.72
2018-07-24T10:57:59.883Z,25.09
2018-07-24T11:00:57.058Z,25.99
2018-07-24T11:03:54.931Z,26.50
2018-07-24T11:06:52.883Z,26.37
2018-07-24T11:09:50.773Z,25.41
2018-07-24T11:12:48.366Z,23.20
2018-07-24T11:15:46.386Z,24.12
2018-07-24T11:18:45.376Z,25.11
2018-07-24T11:21:43.290Z,24.85
2018-07-24T11:24:41.246Z,24.83
2018-07-24T11:27:39.017Z,25.44
2018-07-24T11:30:36.883Z,24.91
2018-07-24T11:33:35.035Z,24.14
2018-07-24T11:36:32.726Z,25.19
2018-07-24T11:39:31.700Z,25.48
2018-07-24T11:42:28.994Z,26.18
2018-07-24T11:45:26.754Z,27.79
2018-07-24T11:48:24.753Z,29.17
2018-07-24T11:51:22.713Z,28.25
2018-07-24T11:54:20.596Z,28.21
2018-07-24T11:57:18.685Z,28.50
2018-07-24T12:00:15.875Z,28.67
2018-07-24T12:03:13.988Z,28.83
2018-07-24T12:06:11.435Z,28.16
2018-07-24T12:09:09.537Z,28.87
2018-07-24T12:12:07.170Z,29.12
2018-07-24T12:15:05.312Z,29.42
2018-07-24T12:18:03.049Z,29.41
2018-07-24T12:21:01.193Z,29.59
2018-07-24T12:23:59.237Z,29.13
2018-07-24T12:26:57.274Z,29.29
2018-07-24T12:29:55.137Z,27.63
2018-07-24T12:32:52.991Z,27.91
2018-07-24T12:35:51.140Z,28.14
2018-07-24T12:38:49.242Z,28.28
2018-07-24T12:41:47.250Z,28.83
2018-07-24T12:44:45.265Z,27.71
2018-07-24T12:47:42.489Z,28.17
2018-07-24T12:50:40.702Z,28.75
2018-07-24T12:53:38.764Z,28.30
2018-07-24T12:56:36.994Z,28.45
2018-07-24T12:59:34.958Z,27.48
2018-07-24T13:02:33.066Z,28.55
2018-07-24T13:05:30.957Z,28.65
2018-07-24T13:08:29.082Z,28.24
2018-07-24T13:11:27.217Z,28.68
2018-07-24T13:14:25.191Z,27.69
2018-07-24T13:17:23.352Z,27.72
2018-07-24T13:20:21.600Z,26.63
2018-07-24T13:23:19.664Z,28.16
2018-07-24T13:26:17.355Z,26.80
2018-07-24T13:29:15.442Z,26.42
2018-07-24T13:32:13.922Z,27.15
2018-07-24T13:35:11.800Z,26.87
2018-07-24T13:38:10.042Z,28.08
2018-07-24T13:41:08.199Z,28.82
2018-07-24T13:44:06.122Z,26.54
2018-07-24T13:47:12.421Z,28.00
2018-07-24T13:50:10.387Z,26.33
2018-07-24T13:53:08.222Z,27.02
2018-07-24T13:56:06.270Z,27.56
2018-07-24T13:59:04.507Z,27.71
2018-07-24T14:02:01.671Z,28.18
2018-07-24T14:04:59.567Z,27.31
2018-07-24T14:07:56.806Z,26.98
2018-07-24T14:10:54.932Z,27.50
2018-07-24T14:25:47.396Z,27.32
2018-07-24T14:28:44.942Z,27.99
2018-07-24T14:31:42.932Z,26.45
2018-07-24T14:34:40.714Z,26.63
2018-07-24T14:37:38.859Z,27.17
2018-07-24T14:40:36.550Z,28.52
2018-07-24T14:43:34.149Z,28.44
2018-07-24T14:46:32.227Z,27.06
2018-07-24T14:49:29.920Z,27.59
2018-07-24T14:52:27.786Z,27.80
2018-07-24T14:55:25.046Z,28.63
2018-07-24T14:58:22.524Z,28.43
2018-07-24T15:01:20.549Z,28.01
2018-07-24T15:04:18.625Z,27.85
2018-07-24T15:07:16.439Z,27.21
2018-07-24T15:10:13.763Z,26.99
2018-07-24T15:13:11.893Z,27.71
2018-07-24T15:16:09.789Z,27.24
2018-07-24T15:19:07.007Z,28.36
2018-07-24T15:22:04.184Z,27.89
2018-07-24T15:25:01.544Z,26.92
2018-07-24T15:27:59.523Z,27.82
2018-07-24T15:30:57.052Z,26.87
2018-07-24T15:33:55.153Z,27.60
2018-07-24T15:36:53.342Z,28.22
2018-07-24T15:39:50.524Z,28.09
2018-07-24T15:42:48.647Z,28.67
2018-07-24T15:45:46.411Z,27.51
2018-07-24T15:48:43.650Z,28.29
2018-07-24T15:51:41.189Z,27.33
2018-07-24T15:54:39.242Z,27.70
2018-07-24T15:57:37.377Z,27.67
2018-07-24T16:00:35.122Z,27.52
2018-07-24T16:03:33.131Z,27.42
2018-07-24T16:06:30.343Z,27.01
2018-07-24T16:09:30.534Z,26.56
2018-07-24T16:12:28.731Z,26.55
2018-07-24T16:15:27.737Z,28.19
2018-07-24T16:18:25.827Z,27.61
2018-07-24T16:21:24.125Z,26.77
2018-07-24T16:24:22.041Z,27.52
2018-07-24T16:27:20.282Z,26.33
2018-07-24T16:30:17.479Z,26.93
2018-07-24T16:33:15.044Z,27.11
2018-07-24T16:36:12.255Z,27.98
2018-07-24T16:39:09.279Z,26.51
2018-07-24T16:42:06.929Z,26.78
2018-07-24T16:45:04.735Z,25.70
2018-07-24T16:48:02.055Z,27.12
2018-07-24T16:51:00.111Z,26.90
2018-07-24T16:53:57.998Z,27.05
2018-07-24T16:56:55.987Z,26.68
2018-07-24T16:59:54.270Z,27.22
2018-07-24T17:02:51.735Z,27.67
2018-07-24T17:05:49.686Z,28.54
2018-07-24T17:08:46.912Z,27.39
2018-07-24T17:11:45.199Z,28.73
2018-07-24T17:14:42.340Z,27.29
2018-07-24T17:17:39.509Z,29.10
2018-07-24T17:20:37.536Z,29.41
2018-07-24T17:23:34.839Z,28.40
2018-07-24T17:26:32.857Z,29.12
2018-07-24T17:29:30.998Z,28.86
2018-07-24T17:32:28.386Z,30.22
2018-07-24T17:35:26.395Z,29.23
2018-07-24T17:38:24.439Z,30.02
2018-07-24T17:41:21.722Z,29.17
2018-07-24T17:44:19.107Z,30.08
2018-07-24T17:47:16.735Z,31.72
2018-07-24T17:50:14.172Z,29.35
2018-07-24T17:53:11.892Z,29.48
2018-07-24T17:56:09.599Z,30.03
2018-07-24T17:59:06.994Z,29.31
2018-07-24T18:02:05.192Z,28.77
2018-07-24T18:05:03.303Z,30.05
2018-07-24T18:08:01.046Z,31.06
2018-07-24T18:10:59.070Z,32.05
2018-07-24T18:13:57.449Z,31.24
2018-07-24T18:16:55.187Z,31.96
2018-07-24T18:19:53.076Z,32.13
2018-07-24T18:22:51.090Z,31.42
2018-07-24T18:25:48.952Z,31.86
2018-07-24T18:28:45.883Z,33.07
2018-07-24T18:31:43.781Z,32.95
2018-07-24T18:34:41.850Z,34.01
2018-07-24T18:37:39.807Z,33.92
2018-07-24T18:40:37.823Z,34.67
2018-07-24T18:43:35.036Z,33.06
2018-07-24T18:46:32.978Z,33.56
2018-07-24T18:49:30.952Z,33.88
2018-07-24T18:52:29.043Z,34.37
2018-07-24T18:55:26.771Z,34.48
2018-07-24T18:58:24.149Z,35.75
2018-07-24T19:01:21.917Z,35.82
2018-07-24T19:04:19.346Z,37.19
2018-07-24T19:07:17.300Z,38.38
2018-07-24T19:10:14.649Z,39.48
2018-07-24T19:13:12.851Z,39.84
2018-07-24T19:16:09.762Z,40.16
2018-07-24T19:19:08.021Z,40.08
2018-07-24T19:22:05.988Z,40.12
2018-07-24T19:25:03.058Z,40.75
2018-07-24T19:28:00.242Z,40.77
2018-07-24T19:30:57.480Z,40.30
2018-07-24T19:33:55.599Z,40.57
2018-07-24T19:36:54.023Z,41.93
2018-07-24T19:39:52.161Z,41.31
2018-07-24T19:42:50.203Z,42.13
2018-07-24T19:45:47.306Z,42.64
2018-07-24T19:48:45.188Z,42.88
2018-07-24T19:51:42.449Z,43.16
2018-07-24T19:54:40.707Z,44.64
2018-07-24T19:57:37.859Z,43.44
2018-07-24T20:00:35.958Z,44.72
2018-07-24T20:03:34.421Z,44.89
2018-07-24T20:06:31.590Z,44.84
2018-07-24T20:09:30.975Z,45.70
2018-07-24T20:12:29.183Z,46.04
2018-07-24T20:15:29.790Z,45.24
2018-07-24T20:18:27.112Z,44.71
2018-07-24T20:21:25.146Z,46.10
2018-07-24T20:24:22.632Z,45.40
2018-07-24T20:27:21.483Z,45.66
2018-07-24T20:30:19.615Z,46.66
2018-07-24T20:33:17.557Z,46.63
2018-07-24T20:36:15.466Z,47.62
2018-07-24T20:39:12.951Z,48.50
2018-07-24T20:42:10.804Z,48.76
2018-07-24T20:45:07.902Z,49.81
2018-07-24T20:48:05.164Z,49.47
2018-07-24T20:51:03.302Z,49.43
2018-07-24T20:54:01.311Z,49.35
2018-07-24T20:56:59.318Z,49.82
2018-07-24T20:59:57.257Z,49.70
2018-07-24T21:02:55.296Z,50.97
2018-07-24T21:05:52.433Z,50.76
2018-07-24T21:08:50.624Z,51.90
2018-07-24T21:11:47.615Z,52.10
2018-07-24T21:14:45.572Z,52.56
2018-07-24T21:17:42.638Z,52.88
2018-07-24T21:20:39.728Z,53.36
2018-07-24T21:23:37.103Z,53.85
2018-07-24T21:26:35.279Z,53.84
2018-07-24T21:29:32.427Z,53.64
2018-07-24T21:32:29.567Z,53.95
2018-07-24T21:35:26.827Z,53.74
2018-07-24T21:38:24.062Z,53.12
2018-07-24T21:41:21.779Z,53.66
2018-07-24T21:44:19.812Z,54.48
2018-07-24T21:47:17.114Z,53.67
2018-07-24T21:50:15.219Z,54.52
2018-07-24T21:53:13.321Z,55.11
2018-07-24T21:56:11.498Z,54.31
2018-07-24T21:59:08.901Z,54.99
2018-07-24T22:02:06.946Z,55.60
2018-07-24T22:05:05.122Z,55.58
2018-07-24T22:08:02.489Z,54.79
2018-07-24T22:11:00.551Z,54.85
2018-07-24T22:13:57.829Z,54.92
2018-07-24T22:16:55.825Z,54.58
2018-07-24T22:19:54.106Z,54.87
2018-07-24T22:22:51.819Z,54.68
2018-07-24T22:25:49.825Z,55.24
2018-07-24T22:28:47.268Z,56.66
2018-07-24T22:31:44.718Z,55.96
2018-07-24T22:34:42.651Z,56.36
2018-07-24T22:37:40.284Z,56.43
2018-07-24T22:40:38.186Z,56.97
2018-07-24T22:43:36.042Z,57.28
2018-07-24T22:46:33.862Z,57.25
2018-07-24T22:49:31.867Z,56.24
2018-07-24T22:52:29.810Z,56.42
2018-07-24T22:55:27.024Z,55.80
2018-07-24T22:58:24.978Z,55.83
2018-07-24T23:01:22.749Z,56.44
2018-07-24T23:04:19.844Z,56.44
2018-07-24T23:07:18.069Z,56.94
2018-07-24T23:10:16.193Z,57.04
2018-07-24T23:13:14.354Z,57.52
2018-07-24T23:16:11.642Z,57.63
2018-07-24T23:19:08.854Z,59.24
2018-07-24T23:22:05.967Z,58.72
2018-07-24T23:25:03.317Z,59.39
2018-07-24T23:28:01.269Z,59.56
2018-07-24T23:30:59.238Z,58.56
2018-07-24T23:33:57.042Z,58.67
2018-07-24T23:36:54.237Z,58.59
2018-07-24T23:42:40.882Z,59.31
2018-07-24T23:45:38.103Z,60.14
2018-07-24T23:48:35.778Z,60.35
2018-07-24T23:51:33.600Z,60.39
2018-07-24T23:54:31.492Z,59.68
2018-07-24T23:57:29.460Z,58.38
